Time;durP1;ratioP1;P1;durP2;ratioP2;P2;SDS_P1;SDS_P2;PMS_P1;PMS_P2;Temp;Humidity;BMP_temperature;BMP_pressure;BME280_temperature;BME280_humidity;BME280_pressure;Samples;Min_cycle;Max_cycle;Signal;HPM_P1;HPM_P2
2021/06/30 00:02:10;;;;;;;10.03;8.48;;;21.10;99.90;;;;;;1949491;73;21187;-69
2021/06/30 00:04:37;;;;;;;16.35;9.53;;;21.20;99.90;;;;;;1983537;72;21121;-69
2021/06/30 00:07:06;;;;;;;10.53;8.93;;;21.20;99.90;;;;;;1978675;72;20988;-70
2021/06/30 00:09:34;;;;;;;12.07;9.70;;;21.20;99.90;;;;;;1972211;72;21171;-69
2021/06/30 00:12:03;;;;;;;16.67;10.38;;;21.20;99.90;;;;;;1929320;71;21096;-73
2021/06/30 00:14:30;;;;;;;11.63;9.08;;;21.30;99.90;;;;;;1847733;76;21102;-72
2021/06/30 00:16:58;;;;;;;15.23;9.93;;;21.30;99.90;;;;;;1845219;78;21190;-72
2021/06/30 00:19:28;;;;;;;10.90;9.80;;;21.20;99.90;;;;;;1845274;78;21144;-72
2021/06/30 00:21:56;;;;;;;11.45;9.90;;;21.20;99.90;;;;;;1843752;78;21195;-73
2021/06/30 00:24:24;;;;;;;10.53;9.03;;;21.20;99.90;;;;;;1838695;77;21126;-73
2021/06/30 00:26:51;;;;;;;17.25;10.68;;;21.20;99.90;;;;;;1849273;77;21096;-72
2021/06/30 00:29:19;;;;;;;14.18;9.75;;;21.20;99.90;;;;;;1830495;77;21099;-73
2021/06/30 00:31:47;;;;;;;15.85;9.85;;;21.20;99.90;;;;;;1810166;78;21144;-72
2021/06/30 00:34:14;;;;;;;11.55;9.68;;;21.20;99.90;;;;;;1866216;76;21176;-73
2021/06/30 00:36:46;;;;;;;16.10;10.32;;;21.10;99.90;;;;;;1845376;77;21097;-72
2021/06/30 00:39:19;;;;;;;11.68;10.35;;;21.10;99.90;;;;;;1860543;77;21224;-72
2021/06/30 00:41:46;;;;;;;14.75;9.95;;;21.10;99.90;;;;;;1868652;76;21224;-73
2021/06/30 00:44:14;;;;;;;12.20;10.23;;;21.10;99.90;;;;;;1873226;76;21122;-72
2021/06/30 00:46:42;;;;;;;12.15;9.88;;;21.10;99.90;;;;;;1837686;76;21112;-72
2021/06/30 00:49:10;;;;;;;20.25;11.25;;;21.10;99.90;;;;;;1861222;76;21620;-73
2021/06/30 00:51:38;;;;;;;14.63;10.50;;;21.00;99.90;;;;;;1859646;77;21404;-73
2021/06/30 00:54:06;;;;;;;12.60;10.50;;;21.00;99.90;;;;;;1852781;77;21087;-73
2021/06/30 00:56:33;;;;;;;12.68;10.65;;;21.00;99.90;;;;;;1828919;77;21213;-72
2021/06/30 00:59:02;;;;;;;13.10;10.58;;;21.00;99.90;;;;;;1844429;77;21216;-72
2021/06/30 01:01:30;;;;;;;15.25;11.10;;;21.00;99.90;;;;;;1854444;77;21153;-72
2021/06/30 01:03:58;;;;;;;16.55;10.70;;;21.00;99.90;;;;;;1874895;76;21163;-72
2021/06/30 01:06:25;;;;;;;12.70;10.40;;;20.90;99.90;;;;;;1828993;78;21193;-72
2021/06/30 01:08:53;;;;;;;12.60;9.73;;;20.90;99.90;;;;;;1842051;77;21093;-72
2021/06/30 01:11:20;;;;;;;13.93;10.15;;;21.00;99.90;;;;;;1862216;76;21261;-72
2021/06/30 01:13:48;;;;;;;13.03;10.28;;;21.00;99.90;;;;;;1878830;76;21145;-72
2021/06/30 01:16:17;;;;;;;15.20;10.90;;;21.00;99.90;;;;;;1830766;77;21106;-72
2021/06/30 01:18:45;;;;;;;15.48;10.53;;;21.00;99.90;;;;;;1857161;76;21053;-72
2021/06/30 01:21:13;;;;;;;12.18;10.55;;;21.00;99.90;;;;;;1878111;76;21078;-73
2021/06/30 01:23:42;;;;;;;11.28;9.75;;;21.00;99.90;;;;;;1850084;76;21659;-73
2021/06/30 01:26:11;;;;;;;13.05;10.13;;;21.00;99.90;;;;;;1864260;76;21177;-73
2021/06/30 01:28:39;;;;;;;11.55;10.40;;;20.90;99.90;;;;;;1851384;77;21059;-73
2021/06/30 01:31:08;;;;;;;11.48;10.32;;;20.90;99.90;;;;;;1851288;77;21073;-73
2021/06/30 01:33:36;;;;;;;13.22;9.55;;;20.90;99.90;;;;;;1852026;77;21078;-73
2021/06/30 01:36:04;;;;;;;11.57;10.38;;;20.90;99.90;;;;;;1852124;76;21093;-72
2021/06/30 01:38:32;;;;;;;12.43;10.53;;;20.90;99.90;;;;;;1851760;77;21098;-73
2021/06/30 01:41:00;;;;;;;16.15;11.53;;;20.90;99.90;;;;;;1854948;76;21169;-73
2021/06/30 01:43:28;;;;;;;13.83;10.00;;;20.90;99.90;;;;;;1862275;76;21110;-73
2021/06/30 01:45:58;;;;;;;12.23;10.95;;;20.90;99.90;;;;;;1853964;76;21560;-72
2021/06/30 01:48:25;;;;;;;12.78;10.13;;;20.90;99.90;;;;;;1826559;76;21203;-73
2021/06/30 01:50:53;;;;;;;11.73;10.48;;;20.90;99.90;;;;;;1857150;76;21117;-72
2021/06/30 01:53:21;;;;;;;15.38;11.70;;;20.90;99.90;;;;;;1872325;76;21113;-72
2021/06/30 01:55:50;;;;;;;15.90;12.65;;;20.90;99.90;;;;;;1855045;76;21082;-72
2021/06/30 01:58:23;;;;;;;14.00;12.23;;;20.80;99.90;;;;;;1851248;77;21117;-73
2021/06/30 02:00:53;;;;;;;15.85;12.07;;;20.80;99.90;;;;;;1853629;76;21547;-72
2021/06/30 02:03:21;;;;;;;16.30;11.57;;;20.80;99.90;;;;;;1852447;77;21100;-73
2021/06/30 02:05:48;;;;;;;15.18;11.75;;;20.80;99.90;;;;;;1852432;77;21052;-72
2021/06/30 02:08:17;;;;;;;14.65;12.25;;;20.70;99.90;;;;;;1852098;77;21030;-72
2021/06/30 02:10:45;;;;;;;14.23;12.43;;;20.70;99.90;;;;;;1864585;76;21039;-72
2021/06/30 02:13:13;;;;;;;18.45;15.23;;;20.80;99.90;;;;;;1870796;76;21548;-72
2021/06/30 02:15:41;;;;;;;22.65;16.42;;;20.70;99.90;;;;;;1873067;76;21042;-72
2021/06/30 02:18:09;;;;;;;31.30;19.77;;;20.70;99.90;;;;;;1821568;78;21068;-72
2021/06/30 02:20:37;;;;;;;35.85;21.25;;;20.70;99.90;;;;;;1822007;77;21631;-73
2021/06/30 02:23:05;;;;;;;29.52;19.87;;;20.70;99.90;;;;;;1824877;77;21094;-73
2021/06/30 02:25:32;;;;;;;39.38;25.48;;;20.70;99.90;;;;;;1852730;76;21110;-72
2021/06/30 02:28:00;;;;;;;42.03;23.60;;;20.70;99.90;;;;;;1882025;76;21125;-72
2021/06/30 02:30:30;;;;;;;38.78;24.45;;;20.70;99.90;;;;;;1882086;76;21457;-72
2021/06/30 02:33:00;;;;;;;46.18;28.52;;;20.70;99.90;;;;;;1850570;77;21102;-72
2021/06/30 02:35:29;;;;;;;53.83;29.98;;;20.70;99.90;;;;;;1855072;76;21118;-73
2021/06/30 02:37:57;;;;;;;57.00;31.87;;;20.80;99.90;;;;;;1861170;76;22181;-72
2021/06/30 02:40:27;;;;;;;61.68;34.15;;;20.70;99.90;;;;;;1861140;77;21105;-73
2021/06/30 02:43:00;;;;;;;64.45;36.83;;;20.80;99.90;;;;;;1862715;76;21231;-73
2021/06/30 02:45:24;;;;;;;66.53;35.68;;;20.80;99.90;;;;;;1849663;76;21131;-73
2021/06/30 02:47:52;;;;;;;59.45;32.93;;;20.80;99.90;;;;;;1852513;76;21077;-73
2021/06/30 02:50:20;;;;;;;56.75;33.35;;;20.80;99.90;;;;;;1852083;76;21120;-72
2021/06/30 02:52:50;;;;;;;63.73;34.35;;;20.90;99.90;;;;;;1852192;77;21151;-72
2021/06/30 02:55:19;;;;;;;63.95;36.55;;;20.80;99.90;;;;;;1850843;77;21059;-73
2021/06/30 02:57:47;;;;;;;54.27;32.75;;;20.90;99.90;;;;;;1851254;77;21093;-73
2021/06/30 03:00:17;;;;;;;56.13;33.18;;;20.90;99.90;;;;;;1865069;76;21081;-73
2021/06/30 03:02:45;;;;;;;55.60;33.80;;;20.90;99.90;;;;;;1850501;77;21615;-73
2021/06/30 03:05:13;;;;;;;53.92;32.75;;;20.90;99.90;;;;;;1861747;76;21086;-73
2021/06/30 03:07:41;;;;;;;53.00;32.35;;;21.00;99.90;;;;;;1881871;76;21175;-73
2021/06/30 03:10:11;;;;;;;51.28;31.48;;;20.90;99.90;;;;;;1871928;76;21179;-73
2021/06/30 03:12:39;;;;;;;52.45;31.97;;;21.00;99.90;;;;;;1871367;76;21622;-72
2021/06/30 03:15:09;;;;;;;56.25;34.38;;;21.00;99.90;;;;;;1854891;76;21444;-72
2021/06/30 03:17:37;;;;;;;49.60;31.93;;;21.00;99.90;;;;;;1851936;77;21086;-73
2021/06/30 03:20:15;;;;;;;51.83;32.53;;;21.00;99.90;;;;;;1860969;76;21654;-72
2021/06/30 03:22:43;;;;;;;54.67;34.03;;;21.00;99.90;;;;;;1877954;75;21081;-72
2021/06/30 03:25:13;;;;;;;60.48;35.60;;;21.00;99.90;;;;;;1854394;76;21524;-73
2021/06/30 03:27:42;;;;;;;64.32;36.93;;;21.00;99.90;;;;;;1851061;77;21175;-73
2021/06/30 03:30:11;;;;;;;66.15;37.63;;;21.00;99.90;;;;;;1850887;77;21105;-73
2021/06/30 03:32:38;;;;;;;66.90;37.03;;;21.00;99.90;;;;;;1870274;76;21219;-73
2021/06/30 03:35:07;;;;;;;67.05;37.63;;;21.00;99.90;;;;;;1855255;76;21163;-73
2021/06/30 03:37:35;;;;;;;64.37;38.90;;;21.00;99.90;;;;;;1851202;77;21602;-73
2021/06/30 03:40:03;;;;;;;59.45;35.92;;;21.00;99.90;;;;;;1854981;77;21086;-73
2021/06/30 03:42:30;;;;;;;60.95;35.25;;;21.00;99.90;;;;;;1859621;76;21139;-73
2021/06/30 03:44:58;;;;;;;61.50;35.38;;;21.10;99.90;;;;;;1855115;76;21129;-73
2021/06/30 03:47:25;;;;;;;64.27;36.13;;;21.10;99.90;;;;;;1881901;76;21535;-73
2021/06/30 03:49:53;;;;;;;56.13;33.65;;;21.10;99.90;;;;;;1876288;76;21191;-73
2021/06/30 03:52:21;;;;;;;64.35;37.50;;;21.10;99.90;;;;;;1850648;77;21248;-73
2021/06/30 03:54:48;;;;;;;67.80;38.85;;;21.20;99.90;;;;;;1869942;76;21149;-73
2021/06/30 03:57:16;;;;;;;64.03;37.00;;;21.20;99.90;;;;;;1880669;76;21090;-73
2021/06/30 03:59:43;;;;;;;73.80;40.35;;;21.20;99.90;;;;;;1858012;76;21097;-73
2021/06/30 04:02:12;;;;;;;69.07;38.08;;;21.20;99.90;;;;;;1851407;77;21362;-73
2021/06/30 04:04:40;;;;;;;70.60;39.48;;;21.30;99.90;;;;;;1851343;77;21113;-73
2021/06/30 04:07:07;;;;;;;69.92;40.90;;;21.30;99.90;;;;;;1852156;77;21153;-73
2021/06/30 04:09:34;;;;;;;70.32;39.10;;;21.30;99.90;;;;;;1852824;76;21668;-73
2021/06/30 04:12:02;;;;;;;66.15;39.23;;;21.30;99.90;;;;;;1869339;76;21112;-73
2021/06/30 04:14:29;;;;;;;63.60;38.38;;;21.30;99.90;;;;;;1847805;76;21071;-73
2021/06/30 04:16:57;;;;;;;64.75;38.53;;;21.30;99.90;;;;;;1851255;77;21133;-73
2021/06/30 04:19:25;;;;;;;76.90;41.83;;;21.30;99.90;;;;;;1858776;76;21113;-73
2021/06/30 04:21:52;;;;;;;73.28;41.10;;;21.30;99.90;;;;;;1843025;76;21150;-74
2021/06/30 04:24:20;;;;;;;76.53;40.60;;;21.30;99.90;;;;;;1838077;77;21557;-74
2021/06/30 04:26:47;;;;;;;74.22;40.85;;;21.30;99.90;;;;;;1853611;76;22046;-74
2021/06/30 04:29:15;;;;;;;75.30;41.18;;;21.30;99.90;;;;;;1850475;76;21086;-74
2021/06/30 04:31:42;;;;;;;69.75;39.13;;;21.40;99.90;;;;;;1822460;76;21122;-74
2021/06/30 04:34:10;;;;;;;76.12;41.48;;;21.40;99.90;;;;;;1832811;76;21095;-74
2021/06/30 04:36:37;;;;;;;67.72;39.88;;;21.40;99.90;;;;;;1839150;76;21133;-74
2021/06/30 04:39:05;;;;;;;69.60;37.75;;;21.40;99.90;;;;;;1839797;76;21097;-74
2021/06/30 04:41:32;;;;;;;70.20;37.83;;;21.40;99.90;;;;;;1838322;76;21152;-74
2021/06/30 04:44:00;;;;;;;65.62;36.68;;;21.40;99.90;;;;;;1850571;76;21212;-74
2021/06/30 04:46:27;;;;;;;61.68;34.27;;;21.40;99.90;;;;;;1833399;76;21125;-74
2021/06/30 04:48:55;;;;;;;63.95;37.25;;;21.40;99.90;;;;;;1854395;76;21148;-73
2021/06/30 04:51:23;;;;;;;67.20;36.80;;;21.40;99.90;;;;;;1844347;76;21115;-74
2021/06/30 04:53:52;;;;;;;59.98;35.03;;;21.40;99.90;;;;;;1805783;77;21354;-73
2021/06/30 04:56:39;;;;;;;63.42;36.40;;;21.40;99.90;;;;;;1842325;76;21658;-74
2021/06/30 04:58:58;;;;;;;60.63;35.95;;;21.50;99.90;;;;;;1830714;76;21151;-74
2021/06/30 05:01:25;;;;;;;68.12;38.23;;;21.40;99.90;;;;;;1815698;77;21624;-73
2021/06/30 05:03:53;;;;;;;63.52;36.38;;;21.40;99.90;;;;;;1843599;77;21573;-74
2021/06/30 05:06:21;;;;;;;67.10;36.00;;;21.40;99.90;;;;;;1868470;76;21101;-74
2021/06/30 05:08:48;;;;;;;66.72;36.83;;;21.40;99.90;;;;;;1813501;77;21202;-74
2021/06/30 05:11:16;;;;;;;71.28;35.68;;;21.40;99.90;;;;;;1854025;76;21212;-73
2021/06/30 05:13:43;;;;;;;61.63;33.98;;;21.40;99.90;;;;;;1852442;76;21568;-73
2021/06/30 05:16:11;;;;;;;53.15;32.38;;;21.40;99.90;;;;;;1863779;76;21167;-73
2021/06/30 05:18:38;;;;;;;59.42;32.73;;;21.40;99.90;;;;;;1822521;78;21179;-73
2021/06/30 05:21:06;;;;;;;56.75;32.90;;;21.40;99.90;;;;;;1864376;75;21248;-73
2021/06/30 05:23:33;;;;;;;58.85;32.38;;;21.40;99.90;;;;;;1887593;76;21583;-73
2021/06/30 05:26:02;;;;;;;53.38;31.37;;;21.40;99.90;;;;;;1871039;76;21198;-73
2021/06/30 05:28:30;;;;;;;47.98;30.23;;;21.40;99.90;;;;;;1839558;76;21555;-73
2021/06/30 05:31:00;;;;;;;53.17;27.77;;;21.40;99.90;;;;;;1857365;76;21101;-72
2021/06/30 05:33:26;;;;;;;49.67;25.27;;;21.40;99.90;;;;;;1867918;76;21769;-72
2021/06/30 05:35:55;;;;;;;48.98;25.88;;;21.50;99.90;;;;;;1866124;76;21073;-73
2021/06/30 05:38:25;;;;;;;43.68;22.30;;;21.50;99.90;;;;;;1814636;77;21342;-72
2021/06/30 05:40:53;;;;;;;41.63;22.90;;;21.50;99.90;;;;;;1876469;76;21173;-73
2021/06/30 05:43:20;;;;;;;40.20;22.65;;;21.50;99.90;;;;;;1861860;76;21129;-74
2021/06/30 05:45:48;;;;;;;48.75;23.22;;;21.50;99.90;;;;;;1846842;76;21053;-73
2021/06/30 05:48:16;;;;;;;48.68;22.00;;;21.40;99.90;;;;;;1826584;77;21040;-74
2021/06/30 05:50:43;;;;;;;41.35;21.45;;;21.40;99.90;;;;;;1854247;76;21164;-73
2021/06/30 05:53:11;;;;;;;44.95;22.75;;;21.40;99.90;;;;;;1852003;76;21158;-73
2021/06/30 05:55:38;;;;;;;47.15;22.37;;;21.40;99.90;;;;;;1853251;76;21182;-73
2021/06/30 05:58:06;;;;;;;47.90;23.47;;;21.40;99.90;;;;;;1850373;76;21102;-73
2021/06/30 06:00:33;;;;;;;47.43;24.75;;;21.40;99.90;;;;;;1846087;76;21632;-72
2021/06/30 06:03:01;;;;;;;44.13;22.05;;;21.50;99.90;;;;;;1850221;76;21134;-72
2021/06/30 06:05:28;;;;;;;42.23;23.75;;;21.40;99.90;;;;;;1851956;76;21093;-75
2021/06/30 06:07:56;;;;;;;41.48;22.87;;;21.50;99.90;;;;;;1851430;76;21111;-72
2021/06/30 06:10:24;;;;;;;41.45;22.45;;;21.50;99.90;;;;;;1850565;76;21179;-72
2021/06/30 06:12:51;;;;;;;40.52;24.60;;;21.50;99.90;;;;;;1844350;74;21592;-71
2021/06/30 06:15:19;;;;;;;44.20;25.40;;;21.50;99.90;;;;;;1869264;75;21086;-71
2021/06/30 06:17:46;;;;;;;50.98;28.45;;;21.50;99.90;;;;;;1861254;75;21105;-72
2021/06/30 06:20:14;;;;;;;54.13;28.38;;;21.50;99.90;;;;;;1846607;75;21519;-72
2021/06/30 06:22:42;;;;;;;55.12;29.20;;;21.50;99.90;;;;;;1864003;77;21106;-70
2021/06/30 06:25:10;;;;;;;51.58;27.93;;;21.50;99.90;;;;;;1880098;75;21019;-72
2021/06/30 06:27:38;;;;;;;50.20;26.37;;;21.40;99.90;;;;;;1813797;78;21037;-72
2021/06/30 06:30:08;;;;;;;48.48;25.15;;;21.40;99.90;;;;;;1863310;76;21042;-72
2021/06/30 06:32:36;;;;;;;51.70;24.63;;;21.50;99.90;;;;;;1846085;76;21097;-71
2021/06/30 06:35:06;;;;;;;39.80;23.57;;;21.40;99.90;;;;;;1863212;75;21171;-70
2021/06/30 06:37:37;;;;;;;43.55;23.92;;;21.40;99.90;;;;;;1866123;76;21089;-71
2021/06/30 06:40:07;;;;;;;40.03;21.05;;;21.40;99.90;;;;;;1859042;76;21031;-71
2021/06/30 06:42:36;;;;;;;39.30;22.93;;;21.40;99.90;;;;;;1862929;75;21042;-71
2021/06/30 06:45:05;;;;;;;48.70;26.20;;;21.40;99.90;;;;;;1858223;76;21237;-71
2021/06/30 06:47:33;;;;;;;47.83;24.75;;;21.40;99.90;;;;;;1846046;76;21097;-71
2021/06/30 06:50:01;;;;;;;50.63;26.00;;;21.40;99.90;;;;;;1854711;76;21167;-71
2021/06/30 06:52:29;;;;;;;49.23;27.50;;;21.30;99.90;;;;;;1847946;76;21069;-71
2021/06/30 06:54:56;;;;;;;53.90;27.85;;;21.30;99.90;;;;;;1860048;76;21066;-71
2021/06/30 06:57:24;;;;;;;54.23;27.62;;;21.30;99.90;;;;;;1849905;76;21420;-70
2021/06/30 06:59:51;;;;;;;48.63;24.82;;;21.30;99.90;;;;;;1865681;76;21172;-69
2021/06/30 07:02:19;;;;;;;42.08;22.13;;;21.30;99.90;;;;;;1867359;75;21587;-71
2021/06/30 07:04:47;;;;;;;42.13;20.45;;;21.30;99.90;;;;;;1848200;75;21108;-71
2021/06/30 07:07:14;;;;;;;40.70;20.85;;;21.30;99.90;;;;;;1886559;75;21117;-71
2021/06/30 07:09:42;;;;;;;36.03;20.08;;;21.30;99.90;;;;;;1868124;76;21101;-69
2021/06/30 07:12:09;;;;;;;38.35;19.77;;;21.30;99.90;;;;;;1854529;75;21042;-71
2021/06/30 07:14:37;;;;;;;36.08;21.60;;;21.20;99.90;;;;;;1867193;75;21149;-69
2021/06/30 07:17:05;;;;;;;40.92;22.15;;;21.20;99.90;;;;;;1855976;76;21176;-69
2021/06/30 07:19:32;;;;;;;42.75;22.17;;;21.20;99.90;;;;;;1875421;75;21098;-70
2021/06/30 07:22:00;;;;;;;36.10;21.95;;;21.20;99.90;;;;;;1853948;76;21050;-70
2021/06/30 07:24:27;;;;;;;43.15;22.52;;;21.20;99.90;;;;;;1863318;76;21109;-70
2021/06/30 07:26:55;;;;;;;43.30;22.07;;;21.20;99.90;;;;;;1862374;76;21178;-69
2021/06/30 07:29:23;;;;;;;40.55;21.17;;;21.20;99.90;;;;;;1837065;78;21109;-70
2021/06/30 07:31:51;;;;;;;44.08;22.05;;;21.20;99.90;;;;;;1801783;79;21238;-70
2021/06/30 07:34:19;;;;;;;39.63;22.22;;;21.20;99.90;;;;;;1817420;78;21178;-70
2021/06/30 07:36:46;;;;;;;43.30;23.42;;;21.20;99.90;;;;;;1821575;79;21088;-70
2021/06/30 07:39:14;;;;;;;39.15;22.48;;;21.20;99.90;;;;;;1836972;78;21023;-69
2021/06/30 07:41:41;;;;;;;39.80;22.85;;;21.20;99.90;;;;;;1869520;76;21059;-70
2021/06/30 07:44:09;;;;;;;36.50;23.73;;;21.10;99.90;;;;;;1852315;76;21144;-70
2021/06/30 07:46:36;;;;;;;42.75;23.22;;;21.10;99.90;;;;;;1845868;75;21522;-68
2021/06/30 07:49:04;;;;;;;43.13;23.12;;;21.10;99.90;;;;;;1834651;76;21027;-70
2021/06/30 07:51:32;;;;;;;42.88;22.42;;;21.20;99.90;;;;;;1861071;76;21180;-69
2021/06/30 07:53:59;;;;;;;35.70;21.97;;;21.20;99.90;;;;;;1805567;78;21135;-69
2021/06/30 07:56:40;;;;;;;35.78;20.40;;;21.20;99.90;;;;;;1830279;76;21082;-69
2021/06/30 07:59:07;;;;;;;35.40;20.43;;;21.20;99.90;;;;;;1839961;77;21227;-69
2021/06/30 08:01:35;;;;;;;34.50;21.45;;;21.10;99.90;;;;;;1811421;79;21697;-69
2021/06/30 08:04:04;;;;;;;37.15;22.77;;;21.20;99.90;;;;;;1822708;79;21151;-70
2021/06/30 08:06:31;;;;;;;40.25;24.23;;;21.20;99.90;;;;;;1854260;76;22103;-69
2021/06/30 08:08:59;;;;;;;45.45;25.37;;;21.10;99.90;;;;;;1860387;76;21046;-68
2021/06/30 08:11:27;;;;;;;41.13;25.55;;;21.10;99.90;;;;;;1865586;76;21090;-68
2021/06/30 08:13:55;;;;;;;44.40;26.90;;;21.20;99.90;;;;;;1853201;77;21206;-70
2021/06/30 08:16:23;;;;;;;46.02;28.32;;;21.10;99.90;;;;;;1840931;77;21531;-70
2021/06/30 08:18:50;;;;;;;46.95;27.48;;;21.10;99.90;;;;;;1846593;77;21093;-70
2021/06/30 08:21:18;;;;;;;48.30;28.30;;;21.10;99.90;;;;;;1847499;76;21097;-68
2021/06/30 08:23:46;;;;;;;58.45;31.60;;;21.20;99.90;;;;;;1852811;76;21211;-69
2021/06/30 08:26:13;;;;;;;59.90;31.62;;;21.10;99.90;;;;;;1842177;77;21220;-67
2021/06/30 08:28:41;;;;;;;61.58;33.50;;;21.10;99.90;;;;;;1834543;77;21624;-69
2021/06/30 08:31:09;;;;;;;69.53;36.53;;;21.10;99.90;;;;;;1825186;77;21187;-69
2021/06/30 08:33:36;;;;;;;66.67;36.38;;;21.00;99.90;;;;;;1854030;76;21160;-67
2021/06/30 08:36:05;;;;;;;64.00;37.90;;;21.00;99.90;;;;;;1849824;77;21587;-68
2021/06/30 08:38:33;;;;;;;66.57;35.70;;;21.00;99.90;;;;;;1852231;77;21113;-70
2021/06/30 08:41:02;;;;;;;56.65;34.43;;;21.00;99.90;;;;;;1851434;77;21090;-67
2021/06/30 08:43:30;;;;;;;49.98;31.25;;;21.00;99.90;;;;;;1852238;76;21130;-70
2021/06/30 08:45:58;;;;;;;51.28;31.50;;;21.00;99.90;;;;;;1851383;77;21121;-67
2021/06/30 08:48:29;;;;;;;50.12;31.45;;;21.10;99.90;;;;;;1833759;77;21637;-68
2021/06/30 08:50:59;;;;;;;46.30;30.70;;;21.00;99.90;;;;;;1850604;77;21121;-70
2021/06/30 08:53:27;;;;;;;46.15;29.05;;;21.10;99.90;;;;;;1852382;76;22032;-68
2021/06/30 08:55:56;;;;;;;37.73;27.17;;;21.10;99.90;;;;;;1841526;77;21105;-68
2021/06/30 08:58:24;;;;;;;32.80;25.85;;;21.20;99.90;;;;;;1822645;77;21583;-68
2021/06/30 09:00:52;;;;;;;41.25;27.05;;;21.20;99.90;;;;;;1837451;77;21043;-68
2021/06/30 09:03:20;;;;;;;32.00;24.52;;;21.30;99.90;;;;;;1851605;77;21078;-68
2021/06/30 09:08:18;;;;;;;31.20;23.67;;;21.50;99.90;;;;;;1854703;76;21546;-70
2021/06/30 09:10:46;;;;;;;28.02;21.52;;;21.50;99.90;;;;;;1846505;76;21219;-70
2021/06/30 09:13:23;;;;;;;28.17;21.50;;;21.50;99.90;;;;;;1822416;77;21165;-70
2021/06/30 09:16:01;;;;;;;27.05;19.00;;;21.50;99.90;;;;;;1833177;76;21137;-70
2021/06/30 09:18:33;;;;;;;23.80;18.00;;;21.50;99.90;;;;;;1849951;77;21238;-70
2021/06/30 09:21:20;;;;;;;26.17;18.75;;;21.50;99.90;;;;;;1850885;77;21141;-71
2021/06/30 09:24:03;;;;;;;22.87;16.93;;;21.40;99.90;;;;;;1851580;77;21082;-70
2021/06/30 09:26:33;;;;;;;26.35;19.27;;;21.40;99.90;;;;;;1851247;76;21200;-70
2021/06/30 09:29:07;;;;;;;34.05;23.45;;;21.40;99.90;;;;;;1849035;77;21109;-70
2021/06/30 09:31:36;;;;;;;45.83;34.35;;;21.50;99.90;;;;;;1843016;76;21689;-70
2021/06/30 09:34:04;;;;;;;52.67;36.58;;;21.50;99.90;;;;;;1843884;77;21207;-70
2021/06/30 09:36:34;;;;;;;52.05;36.35;;;21.50;99.90;;;;;;1840441;76;21504;-72
2021/06/30 09:39:28;;;;;;;50.63;37.93;;;21.50;99.90;;;;;;1862791;75;21052;-72
2021/06/30 09:42:10;;;;;;;56.92;41.90;;;21.50;99.90;;;;;;1865403;76;21055;-72
2021/06/30 09:44:42;;;;;;;54.77;39.20;;;21.60;99.90;;;;;;1856422;75;21693;-72
2021/06/30 09:47:10;;;;;;;55.75;40.63;;;21.60;99.90;;;;;;1868824;75;21197;-72
2021/06/30 09:49:39;;;;;;;60.63;41.75;;;21.60;99.90;;;;;;1849667;77;21698;-71
2021/06/30 09:52:18;;;;;;;63.33;45.55;;;21.60;99.90;;;;;;1869796;76;21351;-72
2021/06/30 09:54:48;;;;;;;57.95;42.17;;;21.60;99.90;;;;;;1883342;76;21174;-70
2021/06/30 09:57:17;;;;;;;59.85;43.40;;;21.50;99.90;;;;;;1885720;76;21045;-71
2021/06/30 09:59:49;;;;;;;58.85;43.45;;;21.60;99.90;;;;;;1892027;74;21025;-70
2021/06/30 10:02:22;;;;;;;61.23;45.05;;;21.60;99.90;;;;;;1881326;74;21018;-70
2021/06/30 10:05:01;;;;;;;66.00;46.20;;;21.60;99.90;;;;;;1858567;76;21515;-71
2021/06/30 10:07:30;;;;;;;61.00;45.58;;;21.50;99.90;;;;;;1866567;76;21041;-70
2021/06/30 10:10:00;;;;;;;58.95;43.35;;;21.50;99.90;;;;;;1855348;76;21032;-71
2021/06/30 10:12:30;;;;;;;55.17;41.65;;;21.50;99.90;;;;;;1877935;76;22113;-71
2021/06/30 10:15:00;;;;;;;51.95;39.45;;;21.50;99.90;;;;;;1869174;74;21190;-71
2021/06/30 10:17:28;;;;;;;42.08;29.35;;;21.50;99.90;;;;;;1885487;76;21158;-70
2021/06/30 10:19:57;;;;;;;39.18;28.17;;;21.50;99.90;;;;;;1877978;75;21081;-71
2021/06/30 10:22:27;;;;;;;40.75;29.98;;;21.60;99.90;;;;;;1880948;76;21096;-71
2021/06/30 10:24:57;;;;;;;38.65;28.07;;;21.60;99.90;;;;;;1866406;76;21088;-71
2021/06/30 10:27:25;;;;;;;32.45;24.60;;;21.60;99.90;;;;;;1870525;76;21189;-71
2021/06/30 10:29:58;;;;;;;30.35;21.15;;;21.70;99.90;;;;;;1864907;76;21567;-71
2021/06/30 10:32:27;;;;;;;30.40;21.87;;;21.60;99.90;;;;;;1868038;76;21081;-71
2021/06/30 10:34:57;;;;;;;31.73;21.93;;;21.60;99.90;;;;;;1886070;74;21069;-71
2021/06/30 10:37:26;;;;;;;31.48;21.12;;;21.50;99.90;;;;;;1886177;76;21049;-70
2021/06/30 10:39:59;;;;;;;26.42;19.48;;;21.50;99.90;;;;;;1882932;76;21101;-70
2021/06/30 10:42:34;;;;;;;26.10;18.67;;;21.40;99.90;;;;;;1857055;76;21562;-70
2021/06/30 10:45:24;;;;;;;24.80;17.80;;;21.40;99.90;;;;;;1859684;76;21129;-71
2021/06/30 10:47:57;;;;;;;23.35;16.50;;;21.30;99.90;;;;;;1872244;76;21022;-70
2021/06/30 10:50:31;;;;;;;22.42;15.93;;;21.30;99.90;;;;;;1877122;76;21568;-70
2021/06/30 10:53:12;;;;;;;22.07;16.60;;;21.40;99.90;;;;;;1884974;76;21210;-70
2021/06/30 10:55:47;;;;;;;22.60;16.17;;;21.50;99.90;;;;;;1865556;76;21446;-71
2021/06/30 10:58:17;;;;;;;19.75;15.03;;;21.60;99.90;;;;;;1880227;74;21109;-71
2021/06/30 11:01:02;;;;;;;21.55;15.18;;;21.60;99.90;;;;;;1875281;74;21096;-71
2021/06/30 11:03:34;;;;;;;20.32;15.20;;;21.70;99.90;;;;;;1860049;76;21160;-71
2021/06/30 11:06:14;;;;;;;18.45;13.88;;;21.70;99.90;;;;;;1875177;76;21108;-71
2021/06/30 11:08:56;;;;;;;19.10;13.88;;;21.80;99.90;;;;;;1885693;75;21148;-71
2021/06/30 11:11:33;;;;;;;17.85;13.55;;;21.90;99.90;;;;;;1878909;75;21127;-71
2021/06/30 11:14:15;;;;;;;20.97;14.18;;;21.90;99.90;;;;;;1863894;75;21273;-71
2021/06/30 11:16:46;;;;;;;15.83;13.00;;;22.00;99.90;;;;;;1871163;75;21106;-71
2021/06/30 11:19:20;;;;;;;20.50;13.13;;;22.00;99.90;;;;;;1886284;75;21116;-71
2021/06/30 11:21:56;;;;;;;16.23;12.50;;;22.00;99.90;;;;;;1886039;76;21064;-71
2021/06/30 11:24:43;;;;;;;16.93;12.70;;;22.00;99.90;;;;;;1875716;76;21049;-71
2021/06/30 11:29:58;;;;;;;18.10;12.65;;;21.90;99.90;;;;;;1887080;76;21030;-70
2021/06/30 11:32:35;;;;;;;18.07;13.98;;;22.00;99.90;;;;;;1886839;75;21568;-70
2021/06/30 11:35:21;;;;;;;17.15;12.73;;;22.00;99.90;;;;;;1856191;76;21114;-71
2021/06/30 11:37:49;;;;;;;18.05;13.50;;;22.00;99.90;;;;;;1872044;75;21137;-71
2021/06/30 11:40:24;;;;;;;17.17;13.68;;;22.00;99.90;;;;;;1861810;76;21089;-70
2021/06/30 11:42:50;;;;;;;17.80;12.53;;;22.00;99.90;;;;;;1881435;76;21124;-71
2021/06/30 11:45:23;;;;;;;17.67;13.65;;;22.00;99.90;;;;;;1862122;75;21121;-71
2021/06/30 11:47:53;;;;;;;19.20;12.55;;;22.00;99.90;;;;;;1882744;75;21166;-70
2021/06/30 11:50:24;;;;;;;16.67;12.95;;;22.00;99.90;;;;;;1882058;76;21054;-70
2021/06/30 11:52:52;;;;;;;13.72;11.40;;;22.00;99.90;;;;;;1885010;75;21108;-70
2021/06/30 11:55:20;;;;;;;17.15;12.68;;;22.00;99.90;;;;;;1884190;75;21115;-70
2021/06/30 11:58:00;;;;;;;16.93;13.40;;;22.10;99.90;;;;;;1883615;76;21164;-70
2021/06/30 12:00:30;;;;;;;14.75;12.90;;;22.10;99.90;;;;;;1872658;76;21132;-71
2021/06/30 12:03:04;;;;;;;17.77;13.18;;;22.00;99.90;;;;;;1869231;75;21137;-71
2021/06/30 12:05:39;;;;;;;15.35;12.50;;;22.00;99.90;;;;;;1863003;76;21146;-71
2021/06/30 12:08:03;;;;;;;;;;;22.00;99.90;;;;;;1887121;75;21129;-71
2021/06/30 12:10:32;;;;;;;15.90;13.18;;;22.00;99.90;;;;;;1886538;75;20181;-71
2021/06/30 12:13:01;;;;;;;17.73;14.15;;;22.00;99.90;;;;;;1883824;75;21097;-71
2021/06/30 12:15:29;;;;;;;17.20;13.32;;;21.90;99.90;;;;;;1867763;71;22418;-76
2021/06/30 12:17:59;;;;;;;16.90;13.65;;;21.90;99.90;;;;;;1887988;74;21070;-75
2021/06/30 12:20:29;;;;;;;17.57;13.58;;;22.00;99.90;;;;;;1889698;74;21544;-75
2021/06/30 12:22:59;;;;;;;21.70;14.10;;;22.00;99.90;;;;;;1889072;74;21540;-75
2021/06/30 12:25:29;;;;;;;16.52;13.53;;;22.00;99.90;;;;;;1872008;74;21085;-74
2021/06/30 12:28:05;;;;;;;17.40;13.88;;;22.00;99.90;;;;;;1868608;75;21695;-74
2021/06/30 12:30:36;;;;;;;16.20;13.43;;;22.00;99.90;;;;;;1868559;75;21118;-75
2021/06/30 12:33:12;;;;;;;16.93;13.22;;;22.00;99.90;;;;;;1853369;77;21106;-76
2021/06/30 12:35:42;;;;;;;15.13;13.25;;;22.00;99.90;;;;;;1853614;75;21233;-74
2021/06/30 12:38:32;;;;;;;17.55;13.85;;;22.00;99.90;;;;;;1866433;75;22173;-74
2021/06/30 12:41:09;;;;;;;19.12;14.83;;;22.00;99.90;;;;;;1884836;75;21111;-74
2021/06/30 12:43:37;;;;;;;23.83;14.90;;;22.10;99.90;;;;;;1858654;77;21051;-73
2021/06/30 12:46:06;;;;;;;21.17;15.30;;;22.10;99.90;;;;;;1868205;77;21573;-74